Time;durP1;ratioP1;P1;durP2;ratioP2;P2;SDS_P1;SDS_P2;PMS_P1;PMS_P2;Temp;Humidity;BMP_temperature;BMP_pressure;BME280_temperature;BME280_humidity;BME280_pressure;Samples;Min_cycle;Max_cycle;Signal;HPM_P1;HPM_P2
2022/12/23 00:01:37;;;;;;;0.20;0.20;;;10.40;99.90;;;;;;4972394;28;20031;-76
2022/12/23 00:04:09;;;;;;;0.30;0.20;;;10.40;99.90;;;;;;4972544;28;20499;-76
2022/12/23 00:06:35;;;;;;;0.10;0.10;;;10.50;99.90;;;;;;4973552;28;20035;-75
2022/12/23 00:09:00;;;;;;;1.20;0.20;;;10.50;99.90;;;;;;4973002;28;20031;-76
2022/12/23 00:11:27;;;;;;;0.20;0.20;;;10.50;99.90;;;;;;4973619;28;20587;-76
2022/12/23 00:16:37;;;;;;;0.68;0.20;;;10.60;99.90;;;;;;4970491;28;20034;-75
2022/12/23 00:19:03;;;;;;;0.75;0.25;;;10.60;99.90;;;;;;4973413;28;20015;-76
2022/12/23 00:21:29;;;;;;;0.10;0.10;;;10.60;99.90;;;;;;4988603;28;20023;-76
2022/12/23 00:23:55;;;;;;;0.65;0.30;;;10.60;99.90;;;;;;4973563;28;20077;-76
2022/12/23 00:26:22;;;;;;;0.28;0.20;;;10.60;99.90;;;;;;4973537;28;20027;-76
2022/12/23 00:29:00;;;;;;;0.40;0.20;;;10.60;99.90;;;;;;4973563;28;20029;-76
2022/12/23 00:31:25;;;;;;;1.95;0.40;;;10.70;99.90;;;;;;4973797;28;20027;-75
2022/12/23 00:33:54;;;;;;;0.10;0.10;;;10.70;99.90;;;;;;4972203;28;20165;-76
2022/12/23 00:36:26;;;;;;;0.10;0.10;;;10.70;99.90;;;;;;4973540;28;20118;-75
2022/12/23 00:44:22;;;;;;;0.10;0.10;;;10.80;99.90;;;;;;4973828;28;20034;-76
2022/12/23 00:46:47;;;;;;;1.55;0.38;;;10.90;99.90;;;;;;4974046;28;20031;-76
2022/12/23 00:52:04;;;;;;;0.40;0.20;;;10.90;99.90;;;;;;4982001;28;20034;-76
2022/12/23 00:54:30;;;;;;;1.42;0.30;;;10.90;99.90;;;;;;4973942;28;20074;-76
2022/12/23 00:57:05;;;;;;;2.28;0.20;;;10.90;99.90;;;;;;4986065;28;20038;-76
2022/12/23 00:59:31;;;;;;;2.28;0.10;;;10.90;99.90;;;;;;4972006;28;20023;-76
2022/12/23 01:07:26;;;;;;;0.20;0.20;;;10.90;99.90;;;;;;4973524;28;20105;-76
2022/12/23 01:09:51;;;;;;;0.73;0.20;;;11.00;99.90;;;;;;4988152;28;20035;-76
2022/12/23 01:12:17;;;;;;;1.23;0.20;;;11.00;99.90;;;;;;4972060;28;20470;-76
2022/12/23 01:14:43;;;;;;;0.08;0.08;;;11.00;99.90;;;;;;4973597;28;20014;-76
2022/12/23 01:17:14;;;;;;;0.75;0.25;;;11.00;99.90;;;;;;4973577;28;20023;-76
2022/12/23 01:19:40;;;;;;;0.73;0.10;;;11.00;99.90;;;;;;4989359;28;20027;-76
2022/12/23 01:22:12;;;;;;;1.35;0.63;;;11.00;99.90;;;;;;4966980;28;20034;-76
2022/12/23 01:24:41;;;;;;;0.75;0.20;;;11.10;99.90;;;;;;4964429;28;20077;-76
2022/12/23 01:27:12;;;;;;;0.73;0.17;;;11.10;99.90;;;;;;4971750;28;20033;-76
2022/12/23 01:29:38;;;;;;;0.50;0.10;;;11.10;99.90;;;;;;4975428;28;20510;-76
2022/12/23 01:32:03;;;;;;;1.75;0.10;;;11.10;99.90;;;;;;4973841;28;20034;-76
2022/12/23 01:34:29;;;;;;;2.65;0.35;;;11.10;99.90;;;;;;4976747;28;20048;-76
2022/12/23 01:36:55;;;;;;;2.22;0.20;;;11.10;99.90;;;;;;4978009;28;20034;-76
2022/12/23 01:39:20;;;;;;;0.10;0.10;;;11.10;99.90;;;;;;4972310;28;20536;-76
2022/12/23 01:44:51;;;;;;;0.20;0.20;;;11.20;99.90;;;;;;4972862;28;20085;-76
2022/12/23 01:47:29;;;;;;;0.70;0.30;;;11.20;99.90;;;;;;4969271;28;20035;-76
2022/12/23 01:50:30;;;;;;;0.43;0.20;;;11.20;99.90;;;;;;4973477;28;20109;-76
2022/12/23 01:53:04;;;;;;;0.17;0.17;;;11.20;99.90;;;;;;4965631;28;20395;-76
2022/12/23 01:55:35;;;;;;;0.40;0.17;;;11.20;99.90;;;;;;4984653;28;20031;-76
2022/12/23 01:58:15;;;;;;;0.93;0.13;;;11.20;99.90;;;;;;4994587;28;20046;-76
2022/12/23 02:03:44;;;;;;;0.57;0.20;;;11.30;99.90;;;;;;4976040;28;20037;-77
2022/12/23 02:11:45;;;;;;;0.73;0.20;;;11.20;99.90;;;;;;4975796;28;20041;-73
2022/12/23 02:17:21;;;;;;;0.20;0.20;;;11.20;99.90;;;;;;4975456;28;20037;-73
2022/12/23 02:20:14;;;;;;;0.80;0.10;;;11.20;99.90;;;;;;4975092;28;20038;-73
2022/12/23 02:22:51;;;;;;;0.20;0.10;;;11.20;99.90;;;;;;4975082;28;20054;-73
2022/12/23 02:25:39;;;;;;;0.43;0.30;;;11.20;99.90;;;;;;4989734;28;20026;-73
2022/12/23 02:28:41;;;;;;;0.10;0.10;;;11.20;99.90;;;;;;4967287;28;20049;-73
2022/12/23 02:31:20;;;;;;;0.25;0.20;;;11.20;99.90;;;;;;4973653;28;20046;-73
2022/12/23 02:33:50;;;;;;;0.10;0.10;;;11.20;99.90;;;;;;4989680;28;20026;-73
2022/12/23 02:36:30;;;;;;;0.43;0.10;;;11.20;99.90;;;;;;4974832;28;20023;-73
2022/12/23 02:39:04;;;;;;;0.40;0.10;;;11.20;99.90;;;;;;4974482;28;20023;-74
2022/12/23 02:41:32;;;;;;;0.10;0.10;;;11.20;99.90;;;;;;4989412;28;20038;-74
2022/12/23 02:44:19;;;;;;;0.25;0.10;;;11.20;99.90;;;;;;4974243;28;20468;-74
2022/12/23 02:46:55;;;;;;;0.30;0.22;;;11.20;99.90;;;;;;4974401;28;20400;-74
2022/12/23 02:49:30;;;;;;;0.38;0.20;;;11.20;99.90;;;;;;4974240;28;20034;-73
2022/12/23 02:52:00;;;;;;;0.38;0.28;;;11.20;99.90;;;;;;4989292;28;20027;-73
2022/12/23 02:54:30;;;;;;;0.75;0.20;;;11.20;99.90;;;;;;4974226;28;20038;-73
2022/12/23 02:56:59;;;;;;;0.20;0.20;;;11.20;99.90;;;;;;4974498;28;20065;-73
2022/12/23 02:59:28;;;;;;;0.25;0.10;;;11.20;99.90;;;;;;4974158;28;20019;-73
2022/12/23 03:01:54;;;;;;;0.17;0.13;;;11.20;99.90;;;;;;4974014;28;20030;-73
2022/12/23 03:04:23;;;;;;;0.47;0.20;;;11.20;99.90;;;;;;4972558;28;20068;-73
2022/12/23 03:06:52;;;;;;;0.17;0.10;;;11.20;99.90;;;;;;4973972;28;20054;-73
2022/12/23 03:09:33;;;;;;;0.63;0.20;;;11.30;99.90;;;;;;4973996;28;20023;-73
2022/12/23 03:12:20;;;;;;;0.20;0.20;;;11.30;99.90;;;;;;4972601;28;20039;-73
2022/12/23 03:15:05;;;;;;;0.50;0.20;;;11.30;99.90;;;;;;4973707;28;20369;-73
2022/12/23 03:18:07;;;;;;;1.27;0.10;;;11.30;99.90;;;;;;4973985;28;20018;-74
2022/12/23 03:20:58;;;;;;;0.50;0.10;;;11.30;99.90;;;;;;4965859;28;20117;-74
2022/12/23 03:23:32;;;;;;;0.57;0.20;;;11.30;99.90;;;;;;4988667;28;20023;-74
2022/12/23 03:26:23;;;;;;;1.02;0.20;;;11.30;99.90;;;;;;4973838;28;20033;-74
2022/12/23 03:29:12;;;;;;;0.52;0.25;;;11.30;99.90;;;;;;4958795;28;20030;-73
2022/12/23 03:31:46;;;;;;;0.35;0.20;;;11.20;99.90;;;;;;4988566;28;20034;-74
2022/12/23 03:34:29;;;;;;;0.55;0.20;;;11.20;99.90;;;;;;4988523;28;20106;-74
2022/12/23 03:36:59;;;;;;;1.33;0.20;;;11.20;99.90;;;;;;4973411;28;20037;-74
2022/12/23 03:39:45;;;;;;;0.45;0.20;;;11.20;99.90;;;;;;4973422;28;20023;-74
2022/12/23 03:42:32;;;;;;;0.15;0.10;;;11.20;99.90;;;;;;4952529;28;20023;-73
2022/12/23 03:45:02;;;;;;;1.95;0.20;;;11.20;99.90;;;;;;4968975;28;20031;-74
2022/12/23 03:47:49;;;;;;;0.75;0.10;;;11.20;99.90;;;;;;4975775;28;20411;-74
2022/12/23 03:50:18;;;;;;;0.75;0.20;;;11.20;99.90;;;;;;4973536;28;20033;-74
2022/12/23 03:52:57;;;;;;;0.28;0.13;;;11.20;99.90;;;;;;4973224;28;20027;-74
2022/12/23 03:55:29;;;;;;;0.10;0.10;;;11.20;99.90;;;;;;4973523;28;20550;-74
2022/12/23 03:58:05;;;;;;;0.10;0.10;;;11.20;99.90;;;;;;4987969;28;20027;-73
2022/12/23 04:00:34;;;;;;;0.20;0.10;;;11.30;99.90;;;;;;4971779;28;20388;-73
2022/12/23 04:03:12;;;;;;;1.77;0.10;;;11.30;99.90;;;;;;4973154;28;20325;-73
2022/12/23 04:05:48;;;;;;;0.40;0.30;;;11.30;99.90;;;;;;4972205;28;20113;-73
2022/12/23 04:08:36;;;;;;;1.17;0.22;;;11.40;99.90;;;;;;4987447;28;20070;-74
2022/12/23 04:11:02;;;;;;;0.75;0.35;;;11.30;99.90;;;;;;4973490;28;20046;-73
2022/12/23 04:13:29;;;;;;;0.38;0.22;;;11.30;99.90;;;;;;4992496;28;20018;-74
2022/12/23 04:15:59;;;;;;;0.68;0.20;;;11.30;99.90;;;;;;4989991;28;20026;-73
2022/12/23 04:18:31;;;;;;;0.85;0.20;;;11.30;99.90;;;;;;4972939;28;20387;-73
2022/12/23 04:20:57;;;;;;;0.20;0.20;;;11.30;99.90;;;;;;4972000;28;20125;-73
2022/12/23 04:23:26;;;;;;;0.17;0.17;;;11.30;99.90;;;;;;4971495;28;20030;-73
2022/12/23 04:25:51;;;;;;;1.05;0.10;;;11.30;99.90;;;;;;4979119;23;20423;-77
2022/12/23 04:28:17;;;;;;;0.22;0.17;;;11.20;99.90;;;;;;4971218;28;20069;-79
2022/12/23 04:30:49;;;;;;;0.20;0.20;;;11.30;99.90;;;;;;4955307;28;20043;-78
2022/12/23 04:33:14;;;;;;;0.35;0.20;;;11.30;99.90;;;;;;4955603;28;20031;-78
2022/12/23 04:35:40;;;;;;;0.20;0.10;;;11.30;99.90;;;;;;4958911;28;20031;-79
2022/12/23 04:38:06;;;;;;;3.80;0.20;;;11.30;99.90;;;;;;4951229;28;20047;-78
2022/12/23 04:40:31;;;;;;;0.17;0.10;;;11.30;99.90;;;;;;4937901;29;20051;-77
2022/12/23 04:42:57;;;;;;;0.10;0.10;;;11.30;99.90;;;;;;4934791;29;20111;-78
2022/12/23 04:45:22;;;;;;;0.20;0.17;;;11.30;99.90;;;;;;4935519;29;20131;-78
2022/12/23 04:47:51;;;;;;;1.30;0.30;;;11.40;99.90;;;;;;4938088;29;20087;-78
2022/12/23 04:50:17;;;;;;;0.10;0.10;;;11.40;99.90;;;;;;4936412;29;20055;-78
2022/12/23 04:52:45;;;;;;;0.35;0.15;;;11.40;99.90;;;;;;4936813;29;20060;-78
2022/12/23 04:55:11;;;;;;;0.20;0.15;;;11.40;99.90;;;;;;4956187;28;20032;-78
2022/12/23 04:57:48;;;;;;;0.43;0.10;;;11.40;99.90;;;;;;4939194;29;20087;-77
2022/12/23 05:00:15;;;;;;;2.28;0.32;;;11.40;99.90;;;;;;4957016;28;20054;-78
2022/12/23 05:02:46;;;;;;;0.30;0.20;;;11.40;99.90;;;;;;4939345;29;20034;-79
2022/12/23 05:05:12;;;;;;;1.17;0.20;;;11.40;99.90;;;;;;4953143;28;20074;-79
2022/12/23 05:07:37;;;;;;;0.13;0.13;;;11.50;99.90;;;;;;4934813;29;20159;-77
2022/12/23 05:10:03;;;;;;;1.75;0.10;;;11.50;99.90;;;;;;4939456;29;20036;-78
2022/12/23 05:12:30;;;;;;;1.55;0.80;;;11.50;99.90;;;;;;4955590;28;20039;-78
2022/12/23 05:14:56;;;;;;;2.20;0.40;;;11.50;99.90;;;;;;4940293;29;20099;-79
2022/12/23 05:17:22;;;;;;;0.40;0.28;;;11.50;99.90;;;;;;4941180;29;20119;-77
2022/12/23 05:19:57;;;;;;;0.57;0.20;;;11.50;99.90;;;;;;4952403;28;20170;-77
2022/12/23 05:22:22;;;;;;;0.90;0.30;;;11.50;99.90;;;;;;4935038;29;20027;-78
2022/12/23 05:24:48;;;;;;;1.40;0.20;;;11.40;99.90;;;;;;4938399;29;20032;-78
2022/12/23 05:27:13;;;;;;;0.52;0.30;;;11.40;99.90;;;;;;4957804;28;20050;-77
2022/12/23 05:29:45;;;;;;;0.35;0.28;;;11.40;99.90;;;;;;4939953;29;20028;-77
2022/12/23 05:32:10;;;;;;;4.28;1.02;;;11.40;99.90;;;;;;4936274;29;20079;-72
2022/12/23 05:34:36;;;;;;;1.13;0.50;;;11.40;99.90;;;;;;4936075;29;20056;-71
2022/12/23 05:37:05;;;;;;;0.77;0.20;;;11.50;99.90;;;;;;4940122;29;20450;-72
2022/12/23 05:39:31;;;;;;;0.30;0.20;;;11.50;99.90;;;;;;4950148;29;20484;-72
2022/12/23 05:41:56;;;;;;;2.88;0.40;;;11.50;99.90;;;;;;4942748;29;20028;-71
2022/12/23 05:44:25;;;;;;;0.43;0.30;;;11.50;99.90;;;;;;4935717;29;20024;-71
2022/12/23 05:46:51;;;;;;;0.80;0.40;;;11.60;99.90;;;;;;4943988;29;20034;-71
2022/12/23 05:49:16;;;;;;;1.08;0.40;;;11.60;99.90;;;;;;4936634;29;20165;-71
2022/12/23 05:51:45;;;;;;;3.00;0.40;;;11.60;99.90;;;;;;4953315;28;20031;-72
2022/12/23 05:54:11;;;;;;;2.88;0.30;;;11.70;99.90;;;;;;4949267;28;20051;-76
2022/12/23 05:56:36;;;;;;;0.65;0.35;;;11.80;99.90;;;;;;4931641;29;20078;-75
2022/12/23 05:59:02;;;;;;;0.57;0.30;;;11.80;99.90;;;;;;4949577;28;20035;-77
2022/12/23 06:01:28;;;;;;;2.88;0.45;;;11.70;99.90;;;;;;4935509;29;20024;-76
2022/12/23 06:03:53;;;;;;;0.25;0.20;;;11.70;99.90;;;;;;4948162;28;20114;-76
2022/12/23 06:06:19;;;;;;;0.93;0.40;;;11.70;99.90;;;;;;4933048;29;20079;-77
2022/12/23 06:08:44;;;;;;;0.20;0.20;;;11.60;99.90;;;;;;4935168;29;20019;-77
2022/12/23 06:11:13;;;;;;;0.35;0.20;;;11.60;99.90;;;;;;4936242;29;20491;-77
2022/12/23 06:13:39;;;;;;;0.55;0.20;;;11.60;99.90;;;;;;4934565;29;20444;-77
2022/12/23 06:16:05;;;;;;;1.38;0.30;;;11.60;99.90;;;;;;4948900;28;20032;-77
2022/12/23 06:18:30;;;;;;;0.32;0.20;;;11.60;99.90;;;;;;4951024;28;20456;-77
2022/12/23 06:20:56;;;;;;;0.70;0.50;;;11.50;99.90;;;;;;4934335;29;20106;-77
2022/12/23 06:23:27;;;;;;;1.70;0.63;;;11.50;99.90;;;;;;4936894;29;20031;-77
2022/12/23 06:25:58;;;;;;;2.80;1.33;;;11.50;99.90;;;;;;4937782;29;20232;-78
2022/12/23 06:28:31;;;;;;;2.35;0.82;;;11.40;99.90;;;;;;4936644;29;20130;-78
2022/12/23 06:30:57;;;;;;;2.33;1.10;;;11.40;99.90;;;;;;4955880;28;20444;-77
2022/12/23 06:33:24;;;;;;;2.33;1.13;;;11.40;99.90;;;;;;4937468;29;20083;-77
2022/12/23 06:35:49;;;;;;;1.52;0.50;;;11.40;99.90;;;;;;4939242;29;20115;-77
2022/12/23 06:38:15;;;;;;;1.08;0.50;;;11.40;99.90;;;;;;4934552;29;20130;-76
2022/12/23 06:40:44;;;;;;;1.38;0.60;;;11.40;99.90;;;;;;4932702;29;20073;-76
2022/12/23 06:43:12;;;;;;;0.95;0.40;;;11.40;99.90;;;;;;4935439;29;20028;-77
2022/12/23 06:45:38;;;;;;;0.80;0.40;;;11.30;99.90;;;;;;4933261;28;20027;-77
2022/12/23 06:48:06;;;;;;;2.17;0.40;;;11.30;99.90;;;;;;4936613;29;20062;-77
2022/12/23 06:50:35;;;;;;;0.22;0.20;;;11.30;99.90;;;;;;4955984;28;20047;-79
2022/12/23 06:53:01;;;;;;;0.65;0.20;;;11.30;99.90;;;;;;4940481;29;20055;-79
2022/12/23 06:55:27;;;;;;;1.67;0.30;;;11.30;99.90;;;;;;4940950;28;20043;-78
2022/12/23 06:57:55;;;;;;;3.17;0.32;;;11.30;99.90;;;;;;4935348;29;20054;-77
2022/12/23 07:00:21;;;;;;;0.70;0.30;;;11.30;99.90;;;;;;4941304;29;20028;-79
2022/12/23 07:02:52;;;;;;;0.77;0.40;;;11.30;99.90;;;;;;4938155;29;20024;-78
2022/12/23 07:05:21;;;;;;;0.57;0.30;;;11.30;99.90;;;;;;4956862;28;20035;-79
2022/12/23 07:07:47;;;;;;;1.05;0.38;;;11.20;99.90;;;;;;4936158;29;20485;-78
2022/12/23 07:10:15;;;;;;;0.93;0.40;;;11.30;99.90;;;;;;4935782;29;20034;-77
2022/12/23 07:12:44;;;;;;;2.13;0.75;;;11.20;99.90;;;;;;4949027;28;20091;-77
2022/12/23 07:15:10;;;;;;;1.65;0.38;;;11.20;99.90;;;;;;4935467;29;20545;-77
2022/12/23 07:17:36;;;;;;;1.50;0.63;;;11.20;99.90;;;;;;4932904;29;20111;-78
2022/12/23 07:20:08;;;;;;;3.80;0.70;;;11.20;99.90;;;;;;4936074;29;20032;-78
2022/12/23 07:22:34;;;;;;;4.20;1.05;;;11.30;99.90;;;;;;4933921;29;20024;-79
2022/12/23 07:24:59;;;;;;;2.50;0.75;;;11.30;99.90;;;;;;4934586;29;20088;-77
2022/12/23 07:27:28;;;;;;;2.47;0.90;;;11.20;99.90;;;;;;4937210;29;20122;-77
2022/12/23 07:29:54;;;;;;;2.40;0.98;;;11.20;99.90;;;;;;4933274;29;20727;-77
2022/12/23 07:32:19;;;;;;;1.20;0.55;;;11.30;99.90;;;;;;4926463;29;20031;-78
2022/12/23 07:34:45;;;;;;;4.30;0.68;;;11.30;99.90;;;;;;4935438;29;20028;-78
2022/12/23 07:37:10;;;;;;;4.00;1.13;;;11.30;99.90;;;;;;4936172;29;20040;-78
2022/12/23 07:39:39;;;;;;;0.90;0.43;;;11.30;99.90;;;;;;4937748;29;20024;-76
2022/12/23 07:42:07;;;;;;;4.47;0.88;;;11.30;99.90;;;;;;4938475;29;20047;-77
2022/12/23 07:44:36;;;;;;;3.03;1.30;;;11.30;99.90;;;;;;4936206;29;20034;-77
2022/12/23 07:47:05;;;;;;;2.05;0.88;;;11.30;99.90;;;;;;4936715;29;20076;-78
2022/12/23 07:49:30;;;;;;;1.05;0.70;;;11.30;99.90;;;;;;4933556;29;20067;-77
2022/12/23 07:51:56;;;;;;;1.77;0.60;;;11.30;99.90;;;;;;4938960;29;20138;-78
2022/12/23 07:54:31;;;;;;;1.63;0.60;;;11.40;99.90;;;;;;4938706;29;20039;-78
2022/12/23 07:56:59;;;;;;;0.80;0.35;;;11.40;99.90;;;;;;4940118;29;20650;-78
2022/12/23 07:59:26;;;;;;;2.50;0.30;;;11.40;99.90;;;;;;4938414;28;20047;-78
2022/12/23 08:02:03;;;;;;;0.60;0.30;;;11.40;99.90;;;;;;4938952;29;20508;-77
2022/12/23 08:04:44;;;;;;;2.08;0.30;;;11.40;99.90;;;;;;4932729;29;20038;-76
2022/12/23 08:07:10;;;;;;;0.50;0.40;;;11.40;99.90;;;;;;4953865;28;20091;-78
2022/12/23 08:09:39;;;;;;;0.45;0.30;;;11.40;99.90;;;;;;4941105;29;20023;-77
2022/12/23 08:12:04;;;;;;;1.52;0.70;;;11.40;99.90;;;;;;4936513;29;20681;-78
2022/12/23 08:14:30;;;;;;;2.72;0.82;;;11.40;99.90;;;;;;4937267;29;20035;-77
2022/12/23 08:16:56;;;;;;;0.65;0.45;;;11.40;99.90;;;;;;4936602;29;20055;-77
2022/12/23 08:19:24;;;;;;;1.52;0.60;;;11.40;99.90;;;;;;4938264;29;20058;-77
2022/12/23 08:21:50;;;;;;;1.60;0.65;;;11.40;99.90;;;;;;4931340;29;20079;-77
2022/12/23 08:24:19;;;;;;;0.90;0.40;;;11.40;99.90;;;;;;4932739;29;20027;-77
2022/12/23 08:26:50;;;;;;;0.63;0.40;;;11.50;99.90;;;;;;4935641;29;20507;-76
2022/12/23 08:29:16;;;;;;;2.60;0.63;;;11.40;99.90;;;;;;4934733;29;20119;-77
2022/12/23 08:31:41;;;;;;;0.82;0.50;;;11.50;99.90;;;;;;4938706;28;20071;-78
2022/12/23 08:34:07;;;;;;;0.70;0.30;;;11.40;99.90;;;;;;4941137;29;20020;-76
2022/12/23 08:36:34;;;;;;;1.33;0.43;;;11.40;99.90;;;;;;4940791;29;20042;-77
2022/12/23 08:39:03;;;;;;;0.40;0.30;;;11.50;99.90;;;;;;4937366;29;20068;-77
2022/12/23 08:41:33;;;;;;;1.15;0.40;;;11.50;99.90;;;;;;4950654;28;20135;-77
2022/12/23 08:43:59;;;;;;;0.47;0.38;;;11.50;99.90;;;;;;4938794;29;20362;-77
2022/12/23 08:46:25;;;;;;;0.60;0.22;;;11.60;99.90;;;;;;4940555;29;20031;-78
2022/12/23 08:48:51;;;;;;;0.70;0.30;;;11.60;99.90;;;;;;4953839;28;20114;-79
2022/12/23 08:51:20;;;;;;;0.98;0.20;;;11.60;99.90;;;;;;4954920;28;20066;-78
2022/12/23 08:53:46;;;;;;;3.33;0.73;;;11.60;99.90;;;;;;4938310;29;20030;-78
2022/12/23 08:56:14;;;;;;;0.50;0.30;;;11.60;99.90;;;;;;4937385;29;20020;-77
2022/12/23 08:58:42;;;;;;;1.05;0.43;;;11.60;99.90;;;;;;4940560;29;20041;-78
2022/12/23 09:01:10;;;;;;;0.70;0.40;;;11.60;99.90;;;;;;4940645;29;20031;-78
2022/12/23 09:03:40;;;;;;;1.85;0.68;;;11.60;99.90;;;;;;4940014;29;20051;-78
2022/12/23 09:06:11;;;;;;;1.40;0.85;;;11.60;99.90;;;;;;4954607;28;20103;-76
2022/12/23 09:08:40;;;;;;;2.75;1.45;;;11.60;99.90;;;;;;4937321;29;20126;-79
2022/12/23 09:11:15;;;;;;;3.15;1.00;;;11.60;99.90;;;;;;4936872;29;20074;-77
2022/12/23 09:13:42;;;;;;;1.92;0.90;;;11.60;99.90;;;;;;4890898;28;20051;-79
2022/12/23 09:16:11;;;;;;;2.33;1.00;;;11.60;99.90;;;;;;4960170;28;20058;-79
2022/12/23 09:18:37;;;;;;;2.53;1.52;;;11.70;99.90;;;;;;4972918;28;20031;-79
2022/12/23 09:21:09;;;;;;;5.47;2.00;;;11.60;99.90;;;;;;4958337;28;20031;-79
2022/12/23 09:23:35;;;;;;;3.60;1.77;;;11.60;99.90;;;;;;4963724;28;20035;-79
2022/12/23 09:26:03;;;;;;;3.38;1.63;;;11.70;99.90;;;;;;4955899;28;20019;-79
2022/12/23 09:28:29;;;;;;;2.35;1.13;;;11.70;99.90;;;;;;4957595;28;20067;-78
2022/12/23 09:31:04;;;;;;;4.60;2.25;;;11.70;99.90;;;;;;4959601;28;20512;-80
2022/12/23 09:33:32;;;;;;;3.92;2.85;;;11.70;99.90;;;;;;4959795;28;20542;-79
2022/12/23 09:35:59;;;;;;;3.17;2.58;;;11.70;99.90;;;;;;4959795;28;20392;-78
2022/12/23 09:38:24;;;;;;;4.80;2.58;;;11.70;99.90;;;;;;4958322;28;20023;-77
2022/12/23 09:41:21;;;;;;;6.78;3.22;;;11.70;99.90;;;;;;4953964;28;20118;-78
2022/12/23 09:44:08;;;;;;;5.45;2.83;;;11.70;99.90;;;;;;4945655;28;20061;-77
2022/12/23 09:46:41;;;;;;;5.72;3.40;;;11.70;99.90;;;;;;4955500;28;20111;-77
2022/12/23 09:49:13;;;;;;;5.07;2.63;;;11.70;99.90;;;;;;4971084;28;20042;-78
2022/12/23 09:51:42;;;;;;;5.35;2.80;;;11.70;99.90;;;;;;4956860;28;20110;-78
2022/12/23 09:54:23;;;;;;;6.25;2.33;;;11.80;99.90;;;;;;4954433;28;20051;-78
2022/12/23 09:56:51;;;;;;;8.55;2.75;;;11.80;99.90;;;;;;4953185;28;20135;-78
2022/12/23 09:59:58;;;;;;;3.60;2.20;;;11.80;99.90;;;;;;4954918;28;20061;-78
2022/12/23 10:02:54;;;;;;;4.22;1.70;;;11.80;99.90;;;;;;4956231;28;20098;-79
2022/12/23 10:05:34;;;;;;;2.63;1.40;;;11.80;99.90;;;;;;4956054;28;20031;-78
2022/12/23 10:08:11;;;;;;;1.95;1.00;;;11.90;99.90;;;;;;4958369;28;20039;-80
2022/12/23 10:11:05;;;;;;;2.40;1.02;;;11.90;99.90;;;;;;4955639;28;20141;-77
2022/12/23 10:14:12;;;;;;;2.95;1.00;;;11.90;99.90;;;;;;4942197;28;20057;-77
2022/12/23 10:16:52;;;;;;;2.53;1.20;;;11.90;99.90;;;;;;4953998;28;20044;-78
2022/12/23 10:19:46;;;;;;;3.17;1.40;;;12.00;99.90;;;;;;4957305;28;20046;-80
2022/12/23 10:22:30;;;;;;;3.97;2.30;;;12.00;99.90;;;;;;4954903;28;20047;-79
2022/12/23 10:24:59;;;;;;;4.00;1.98;;;12.10;99.90;;;;;;4975756;23;20042;-77
2022/12/23 10:27:40;;;;;;;3.78;1.90;;;12.10;99.90;;;;;;4993062;28;20146;-78
2022/12/23 10:30:19;;;;;;;2.75;1.98;;;12.10;99.90;;;;;;4992224;28;20026;-77
2022/12/23 10:33:13;;;;;;;3.95;2.00;;;12.20;99.90;;;;;;4990958;28;20030;-78
2022/12/23 10:35:45;;;;;;;4.40;2.38;;;12.20;99.90;;;;;;4987205;28;20380;-78
2022/12/23 10:38:19;;;;;;;4.70;2.47;;;12.30;99.90;;;;;;4974329;28;20030;-78
2022/12/23 10:40:51;;;;;;;3.97;2.25;;;12.30;99.90;;;;;;4972730;28;20038;-78
2022/12/23 10:43:42;;;;;;;5.30;2.00;;;12.40;99.90;;;;;;4976344;28;20038;-79
2022/12/23 10:47:08;;;;;;;2.80;1.60;;;12.40;99.90;;;;;;4995292;28;20034;-78
2022/12/23 10:49:55;;;;;;;1.45;0.60;;;12.50;99.90;;;;;;4959558;28;20044;-79
2022/12/23 10:52:26;;;;;;;1.67;0.70;;;12.50;99.90;;;;;;4975265;28;20038;-78
2022/12/23 10:54:54;;;;;;;1.70;0.47;;;12.60;99.90;;;;;;4977738;28;20114;-78
2022/12/23 10:57:22;;;;;;;2.88;0.43;;;12.60;99.90;;;;;;4979440;28;20064;-78
2022/12/23 10:59:48;;;;;;;0.30;0.30;;;12.70;99.90;;;;;;4980979;28;20024;-78
2022/12/23 11:02:13;;;;;;;0.57;0.47;;;12.70;99.90;;;;;;4982068;28;20045;-78
2022/12/23 11:04:49;;;;;;;0.93;0.57;;;12.80;99.90;;;;;;4978221;28;20111;-78
2022/12/23 11:07:23;;;;;;;1.25;0.40;;;12.70;99.90;;;;;;4981367;28;20165;-78
2022/12/23 11:10:12;;;;;;;0.77;0.40;;;12.80;99.90;;;;;;4985302;28;20050;-79
2022/12/23 11:12:43;;;;;;;1.10;0.50;;;12.80;99.90;;;;;;4982587;28;20045;-78
2022/12/23 11:15:39;;;;;;;2.05;0.60;;;12.90;99.90;;;;;;5128466;27;20391;-78
2022/12/23 11:18:17;;;;;;;0.40;0.28;;;12.90;99.90;;;;;;5127324;27;20042;-78
2022/12/23 11:21:13;;;;;;;1.00;0.40;;;12.90;99.90;;;;;;5123678;27;20037;-78
2022/12/23 11:23:44;;;;;;;1.27;0.50;;;13.00;99.90;;;;;;5124075;27;20027;-78
2022/12/23 11:26:18;;;;;;;1.23;0.60;;;13.00;99.90;;;;;;5127507;22;20048;-75
2022/12/23 11:28:51;;;;;;;1.20;0.50;;;13.00;99.90;;;;;;5092337;28;20017;-73
2022/12/23 11:31:31;;;;;;;1.88;0.80;;;13.00;99.90;;;;;;5063880;28;20021;-73
2022/12/23 11:34:03;;;;;;;1.33;0.77;;;13.00;99.90;;;;;;5089286;28;20043;-75
2022/12/23 11:36:30;;;;;;;2.90;1.15;;;13.00;99.90;;;;;;5061779;28;20029;-74
2022/12/23 11:39:25;;;;;;;1.15;0.90;;;13.00;99.90;;;;;;5074163;28;20027;-74
2022/12/23 11:41:54;;;;;;;2.45;1.02;;;13.00;99.90;;;;;;5062469;28;20108;-74
2022/12/23 11:44:30;;;;;;;2.25;0.95;;;13.00;99.90;;;;;;5070094;28;20505;-75
2022/12/23 11:47:17;;;;;;;4.60;1.80;;;13.10;99.90;;;;;;5030207;28;20029;-74
2022/12/23 11:49:52;;;;;;;6.63;3.08;;;13.10;99.90;;;;;;5014382;28;20081;-75
2022/12/23 11:52:27;;;;;;;8.20;4.43;;;13.10;99.90;;;;;;5022212;28;20026;-75
2022/12/23 11:55:24;;;;;;;4.63;2.88;;;13.10;99.90;;;;;;5007242;28;20034;-75
2022/12/23 11:57:51;;;;;;;3.22;0.90;;;13.10;99.90;;;;;;5002797;28;20026;-75
2022/12/23 12:00:19;;;;;;;0.75;0.40;;;13.10;99.90;;;;;;5003453;28;20030;-75
2022/12/23 12:02:51;;;;;;;0.90;0.38;;;13.20;99.90;;;;;;5010227;28;20030;-75
2022/12/23 12:05:26;;;;;;;0.98;0.47;;;13.20;99.90;;;;;;5007031;28;20022;-75
2022/12/23 12:08:00;;;;;;;1.00;0.70;;;13.20;99.90;;;;;;5014250;28;20030;-75
2022/12/23 12:10:30;;;;;;;2.40;0.68;;;13.20;99.90;;;;;;5007480;28;20034;-75
2022/12/23 12:13:02;;;;;;;5.05;3.67;;;13.20;99.90;;;;;;5011079;28;20113;-74
2022/12/23 12:15:43;;;;;;;4.78;3.38;;;13.20;99.90;;;;;;5003368;28;20021;-74
2022/12/23 12:18:13;;;;;;;4.65;1.73;;;13.20;99.90;;;;;;5006960;28;20399;-75
2022/12/23 12:20:54;;;;;;;1.85;0.80;;;13.10;99.90;;;;;;5008861;28;20030;-75
2022/12/23 12:23:25;;;;;;;1.52;0.73;;;13.10;99.90;;;;;;4997104;28;20033;-74
2022/12/23 12:26:03;;;;;;;1.48;0.55;;;13.10;99.90;;;;;;5014266;28;20057;-74
2022/12/23 12:28:37;;;;;;;2.30;0.82;;;13.10;99.90;;;;;;4989072;28;20061;-74
2022/12/23 12:31:23;;;;;;;1.75;0.70;;;13.00;99.90;;;;;;4999578;28;20450;-74
2022/12/23 12:34:26;;;;;;;1.15;0.70;;;13.00;99.90;;;;;;4996281;28;20034;-74
2022/12/23 12:37:16;;;;;;;6.03;1.52;;;13.00;99.90;;;;;;4996134;28;20034;-73
2022/12/23 12:39:53;;;;;;;2.20;1.55;;;13.00;99.90;;;;;;4998339;28;20053;-74
2022/12/23 12:42:28;;;;;;;2.60;1.20;;;13.00;99.90;;;;;;4994100;28;20109;-75
2022/12/23 12:45:13;;;;;;;2.92;1.50;;;13.00;99.90;;;;;;4991503;28;20022;-75
2022/12/23 12:48:06;;;;;;;2.03;0.90;;;13.00;99.90;;;;;;4993639;28;20057;-74
2022/12/23 12:50:37;;;;;;;3.85;2.05;;;12.90;99.90;;;;;;4990323;28;20026;-75
2022/12/23 12:53:18;;;;;;;2.03;1.00;;;13.00;99.90;;;;;;4996121;28;20376;-74
2022/12/23 12:55:52;;;;;;;1.60;0.82;;;13.00;99.90;;;;;;4993665;28;20109;-75
2022/12/23 12:58:20;;;;;;;1.63;0.70;;;13.00;99.90;;;;;;5011940;28;20403;-75
2022/12/23 13:01:17;;;;;;;1.02;0.55;;;13.00;99.90;;;;;;4991161;28;20038;-74
2022/12/23 13:04:10;;;;;;;1.98;1.25;;;13.00;99.90;;;;;;5009490;28;20104;-73
2022/12/23 13:06:57;;;;;;;2.78;1.00;;;13.00;99.90;;;;;;4994757;28;20100;-75
2022/12/23 13:09:42;;;;;;;1.25;1.00;;;13.00;99.90;;;;;;4995398;28;20451;-74
2022/12/23 13:12:23;;;;;;;2.60;1.63;;;13.00;99.90;;;;;;4994276;28;20062;-75
2022/12/23 13:15:29;;;;;;;1.58;0.80;;;13.00;99.90;;;;;;4990918;28;20475;-74
2022/12/23 13:18:15;;;;;;;1.92;1.00;;;13.00;99.90;;;;;;4996214;28;20078;-74
2022/12/23 13:20:52;;;;;;;2.65;0.82;;;13.10;99.90;;;;;;4996588;28;20058;-75
2022/12/23 13:23:48;;;;;;;0.73;0.50;;;13.10;99.90;;;;;;5002018;28;20030;-74
2022/12/23 13:26:29;;;;;;;0.63;0.40;;;13.20;99.90;;;;;;4990219;28;20054;-76
2022/12/23 13:29:22;;;;;;;0.75;0.40;;;13.20;99.90;;;;;;4996645;28;20471;-75
2022/12/23 13:32:09;;;;;;;1.50;0.70;;;13.20;99.90;;;;;;5010248;28;20541;-75
2022/12/23 13:35:20;;;;;;;1.25;0.50;;;13.30;99.90;;;;;;4993003;28;20144;-76
2022/12/23 13:38:13;;;;;;;1.77;0.70;;;13.20;99.90;;;;;;4995824;28;20035;-76
2022/12/23 13:41:02;;;;;;;1.38;0.60;;;13.20;99.90;;;;;;4973476;28;20112;-74
2022/12/23 13:44:05;;;;;;;1.20;0.60;;;13.30;99.90;;;;;;4995931;28;20057;-76
2022/12/23 13:47:08;;;;;;;5.85;2.97;;;13.20;99.90;;;;;;5006133;28;20027;-75
2022/12/23 13:50:03;;;;;;;2.42;1.13;;;13.20;99.90;;;;;;4996595;28;20030;-75
2022/12/23 13:52:49;;;;;;;;;;;13.30;99.90;;;;;;4999736;28;20034;-75